Time;durP1;ratioP1;P1;durP2;ratioP2;P2;SDS_P1;SDS_P2;PMS_P1;PMS_P2;Temp;Humidity;BMP_temperature;BMP_pressure;BME280_temperature;BME280_humidity;BME280_pressure;Samples;Min_cycle;Max_cycle;Signal;HPM_P1;HPM_P2
2022/12/30 00:02:24;;;;;;;0.70;0.70;;;;;;;4.21;100.00;100392.78;5052679;28;20193;-62
2022/12/30 00:04:52;;;;;;;0.50;0.50;;;;;;;4.22;100.00;100384.34;5053205;28;20270;-63
2022/12/30 00:07:19;;;;;;;0.60;0.60;;;;;;;4.19;100.00;100378.38;5052717;28;20205;-62
2022/12/30 00:09:46;;;;;;;0.87;0.87;;;;;;;4.16;100.00;100384.25;5051552;28;20208;-62
2022/12/30 00:34:17;;;;;;;0.80;0.80;;;;;;;3.51;100.00;100392.72;5052145;28;20254;-62
2022/12/30 00:36:45;;;;;;;0.60;0.60;;;;;;;3.50;100.00;100398.59;5052411;28;20278;-64
2022/12/30 00:39:12;;;;;;;1.03;1.00;;;;;;;3.47;100.00;100399.44;5051172;28;20208;-62
2022/12/30 00:44:23;;;;;;;0.50;0.50;;;;;;;3.39;100.00;100384.94;5052201;28;20754;-62
2022/12/30 00:46:50;;;;;;;0.60;0.60;;;;;;;3.50;100.00;100399.47;5052099;28;20193;-62
2022/12/30 00:57:32;;;;;;;0.50;0.50;;;;;;;3.41;100.00;100408.63;5052170;28;20242;-64
2022/12/30 00:59:59;;;;;;;1.13;1.07;;;;;;;3.37;100.00;100400.13;5051922;28;20200;-64
2022/12/30 01:02:26;;;;;;;0.70;0.70;;;;;;;3.38;100.00;100399.31;5052098;28;20254;-64
2022/12/30 01:04:53;;;;;;;0.53;0.53;;;;;;;3.33;100.00;100400.06;5052198;28;20681;-64
2022/12/30 01:07:22;;;;;;;0.50;0.50;;;;;;;3.16;100.00;100393.06;5052370;28;20353;-64
2022/12/30 01:09:48;;;;;;;0.87;0.87;;;;;;;3.17;100.00;100384.63;5050464;28;20220;-64
2022/12/30 01:12:16;;;;;;;0.60;0.60;;;;;;;3.30;100.00;100389.84;5052270;28;20565;-64
2022/12/30 01:14:44;;;;;;;0.53;0.53;;;;;;;3.31;100.00;100397.50;5052232;28;20200;-64
2022/12/30 01:17:13;;;;;;;0.70;0.70;;;;;;;3.30;100.00;100389.84;5051953;28;20204;-66
2022/12/30 01:19:40;;;;;;;1.00;1.00;;;;;;;3.32;100.00;100388.22;5051533;28;20189;-66
2022/12/30 01:22:08;;;;;;;0.60;0.60;;;;;;;3.33;100.00;100387.41;5051326;28;20197;-66
2022/12/30 01:24:37;;;;;;;2.77;2.60;;;;;;;3.32;100.00;100378.94;5051151;28;20193;-66
2022/12/30 01:27:05;;;;;;;0.83;0.83;;;;;;;3.32;100.00;100383.16;5051238;28;20254;-66
2022/12/30 01:29:36;;;;;;;0.50;0.50;;;;;;;3.28;100.00;100373.78;5051592;28;20278;-66
2022/12/30 01:32:04;;;;;;;0.50;0.50;;;;;;;3.31;100.00;100378.91;5051297;28;20251;-66
2022/12/30 01:34:31;;;;;;;0.60;0.60;;;;;;;3.21;100.00;100369.47;5051276;28;20204;-66
2022/12/30 01:36:57;;;;;;;0.90;0.90;;;;;;;3.30;100.00;100383.13;5051330;28;20196;-65
2022/12/30 01:39:24;;;;;;;0.90;0.90;;;;;;;3.28;100.00;100371.25;5051142;28;20204;-66
2022/12/30 01:41:53;;;;;;;0.50;0.50;;;;;;;3.23;100.00;100372.88;5050923;28;20200;-66
2022/12/30 01:44:59;;;;;;;0.87;0.87;;;;;;;3.22;100.00;100372.03;5051024;28;20204;-66
2022/12/30 01:47:34;;;;;;;0.60;0.60;;;;;;;3.22;100.00;100366.97;5050747;28;20254;-66
2022/12/30 01:50:06;;;;;;;0.60;0.60;;;;;;;3.14;100.00;100361.78;5051230;28;20208;-66
2022/12/30 01:52:35;;;;;;;0.70;0.70;;;;;;;3.12;100.00;100363.44;5050133;28;20200;-66
2022/12/30 01:55:06;;;;;;;0.50;0.50;;;;;;;3.03;100.00;100335.44;5050575;28;20250;-66
2022/12/30 01:57:34;;;;;;;1.03;1.03;;;;;;;3.13;100.00;100359.22;5049563;28;20578;-66
2022/12/30 02:00:04;;;;;;;0.93;0.93;;;;;;;3.16;100.00;100352.53;5050753;28;20200;-66
2022/12/30 02:02:32;;;;;;;0.50;0.50;;;;;;;3.16;100.00;100346.59;5050387;28;20244;-66
2022/12/30 02:05:00;;;;;;;0.87;0.87;;;;;;;3.15;100.00;100345.75;5050898;28;20205;-66
2022/12/30 02:07:33;;;;;;;0.50;0.50;;;;;;;3.17;100.00;100341.53;5050710;28;20193;-66
2022/12/30 02:10:01;;;;;;;0.60;0.60;;;;;;;3.18;100.00;100344.94;5050457;28;20220;-66
2022/12/30 02:12:28;;;;;;;0.60;0.60;;;;;;;3.17;100.00;100341.53;5050324;28;20213;-66
2022/12/30 02:14:57;;;;;;;0.53;0.53;;;;;;;3.15;100.00;100342.34;5050745;28;20212;-66
2022/12/30 02:17:32;;;;;;;0.60;0.60;;;;;;;3.15;100.00;100345.75;5050664;28;20584;-65
2022/12/30 02:20:42;;;;;;;0.50;0.50;;;;;;;3.16;100.00;100341.53;5050821;28;20196;-66
2022/12/30 02:23:42;;;;;;;0.70;0.70;;;;;;;3.16;100.00;100344.06;5049852;28;20200;-66
2022/12/30 02:26:35;;;;;;;0.50;0.50;;;;;;;3.13;100.00;100342.31;5039792;28;20725;-66
2022/12/30 02:29:27;;;;;;;0.70;0.70;;;;;;;3.09;100.00;100344.81;5050408;28;20696;-66
2022/12/30 02:32:02;;;;;;;0.60;0.60;;;;;;;3.03;100.00;100340.50;5050311;28;20196;-66
2022/12/30 02:34:40;;;;;;;0.70;0.70;;;;;;;2.96;100.00;100338.72;5050096;28;20207;-66
2022/12/30 02:37:20;;;;;;;0.87;0.87;;;;;;;3.00;100.00;100348.06;5048336;28;20672;-66
2022/12/30 02:39:54;;;;;;;0.60;0.60;;;;;;;3.01;100.00;100343.81;5050158;28;20200;-66
2022/12/30 02:45:14;;;;;;;0.60;0.60;;;;;;;2.98;100.00;100357.31;5049869;28;20250;-66
2022/12/30 02:47:46;;;;;;;0.70;0.70;;;;;;;2.86;100.00;100336.84;5050028;28;20273;-66
2022/12/30 02:53:05;;;;;;;1.23;1.23;;;;;;;2.85;100.00;100355.41;5050370;28;20585;-66
2022/12/30 02:55:32;;;;;;;0.60;0.60;;;;;;;2.85;100.00;100355.41;5050388;28;20685;-66
2022/12/30 02:57:59;;;;;;;1.90;1.90;;;;;;;2.85;100.00;100360.47;5049752;28;20201;-66
2022/12/30 03:03:57;;;;;;;0.70;0.70;;;;;;;2.76;100.00;100360.31;5014091;28;20219;-66
2022/12/30 03:06:46;;;;;;;0.70;0.70;;;;;;;2.73;100.00;100360.28;5048406;28;20196;-66
2022/12/30 03:09:23;;;;;;;0.53;0.53;;;;;;;2.70;100.00;100359.38;5049097;28;20299;-66
2022/12/30 03:11:57;;;;;;;0.70;0.70;;;;;;;2.66;100.00;100361.00;5049717;28;20236;-66
2022/12/30 03:14:29;;;;;;;0.60;0.60;;;;;;;2.61;100.00;100360.06;5050264;28;20587;-66
2022/12/30 03:17:01;;;;;;;0.70;0.70;;;;;;;2.62;100.00;100366.81;5051369;28;20251;-66
2022/12/30 03:19:36;;;;;;;0.70;0.70;;;;;;;2.64;100.00;100365.19;5054133;28;20679;-66
2022/12/30 03:22:03;;;;;;;0.70;0.70;;;;;;;2.63;100.00;100364.34;5053392;28;20770;-61
2022/12/30 03:27:22;;;;;;;0.80;0.80;;;;;;;2.65;100.00;100361.81;5053489;28;20200;-61
2022/12/30 03:29:54;;;;;;;0.50;0.50;;;;;;;2.62;100.00;100366.81;5053848;28;20213;-61
2022/12/30 03:32:23;;;;;;;0.60;0.60;;;;;;;2.58;100.00;100360.03;5053719;28;20254;-61
2022/12/30 03:34:51;;;;;;;0.70;0.70;;;;;;;2.59;100.00;100367.63;5053581;28;20206;-61
2022/12/30 03:37:21;;;;;;;0.57;0.57;;;;;;;2.55;100.00;100359.97;5052934;28;20204;-61
2022/12/30 03:39:54;;;;;;;0.73;0.73;;;;;;;2.58;100.00;100375.22;5053688;28;20201;-61
2022/12/30 03:42:22;;;;;;;0.60;0.60;;;;;;;2.55;100.00;100370.09;5053373;28;20209;-61
2022/12/30 03:44:51;;;;;;;0.73;0.73;;;;;;;2.55;100.00;100370.09;5053413;28;20220;-61
2022/12/30 03:47:19;;;;;;;0.60;0.60;;;;;;;2.52;100.00;100370.03;5052918;28;20204;-61
2022/12/30 03:49:46;;;;;;;0.70;0.70;;;;;;;2.42;100.00;100361.44;5053266;28;20220;-61
2022/12/30 03:52:18;;;;;;;0.80;0.80;;;;;;;2.48;100.00;100368.28;5053106;28;20193;-61
2022/12/30 03:54:45;;;;;;;0.60;0.60;;;;;;;2.46;100.00;100374.97;5053786;28;20575;-61
2022/12/30 03:57:12;;;;;;;0.60;0.60;;;;;;;2.47;100.00;100377.53;5052930;28;20220;-61
2022/12/30 03:59:40;;;;;;;0.70;0.70;;;;;;;2.49;100.00;100375.03;5053218;28;20613;-61
2022/12/30 04:02:07;;;;;;;0.57;0.57;;;;;;;2.50;100.00;100376.75;5053448;28;20201;-61
2022/12/30 04:04:34;;;;;;;0.63;0.63;;;;;;;2.39;100.00;100374.00;5052766;28;20228;-61
2022/12/30 04:07:01;;;;;;;0.50;0.50;;;;;;;2.34;100.00;100374.75;5052475;28;20208;-61
2022/12/30 04:09:29;;;;;;;0.60;0.60;;;;;;;2.31;100.00;100379.75;5053450;28;20209;-64
2022/12/30 04:11:56;;;;;;;0.60;0.60;;;;;;;2.29;100.00;100391.53;5053852;28;20204;-64
2022/12/30 04:14:23;;;;;;;0.63;0.63;;;;;;;2.28;100.00;100387.31;5053630;28;20216;-64
2022/12/30 04:16:50;;;;;;;0.50;0.50;;;;;;;2.23;100.00;100386.38;5053791;28;20580;-63
2022/12/30 04:19:17;;;;;;;0.60;0.60;;;;;;;2.13;100.00;100376.06;5053826;28;20204;-63
2022/12/30 04:21:44;;;;;;;0.80;0.80;;;;;;;2.16;100.00;100387.94;5053335;28;20207;-63
2022/12/30 04:24:11;;;;;;;0.60;0.60;;;;;;;2.13;100.00;100391.22;5053823;28;20684;-63
2022/12/30 04:26:39;;;;;;;0.70;0.70;;;;;;;2.10;100.00;100381.06;5053326;28;20208;-63
2022/12/30 04:29:05;;;;;;;0.80;0.80;;;;;;;2.13;100.00;100388.69;5052043;28;20193;-63
2022/12/30 04:31:32;;;;;;;0.60;0.60;;;;;;;2.16;100.00;100382.88;5053314;28;20753;-63
2022/12/30 04:33:59;;;;;;;0.70;0.70;;;;;;;2.16;100.00;100390.47;5053310;28;20224;-63
2022/12/30 04:36:26;;;;;;;1.77;1.70;;;;;;;2.16;100.00;100385.41;5053140;28;20254;-63
2022/12/30 04:38:53;;;;;;;0.53;0.53;;;;;;;2.18;100.00;100387.94;5052704;28;20209;-63
2022/12/30 04:41:20;;;;;;;0.70;0.70;;;;;;;2.17;100.00;100396.34;5052958;28;20600;-63
2022/12/30 04:43:57;;;;;;;0.60;0.60;;;;;;;2.05;100.00;100390.25;5053201;28;20262;-63
2022/12/30 04:46:23;;;;;;;0.60;0.60;;;;;;;2.06;100.00;100384.38;5052870;28;20196;-63
2022/12/30 04:48:50;;;;;;;0.63;0.63;;;;;;;2.06;100.00;100394.50;5053107;28;20220;-64
2022/12/30 04:51:17;;;;;;;0.73;0.73;;;;;;;2.05;100.00;100392.78;5052890;28;20274;-63
2022/12/30 04:53:44;;;;;;;0.80;0.80;;;;;;;2.06;100.00;100394.50;5053013;28;20200;-63
2022/12/30 04:56:10;;;;;;;0.63;0.63;;;;;;;2.05;100.00;100396.97;5053297;28;20196;-63
2022/12/30 04:58:37;;;;;;;0.60;0.60;;;;;;;2.06;100.00;100397.03;5051664;28;20200;-63
2022/12/30 05:01:06;;;;;;;0.70;0.70;;;;;;;2.02;100.00;100386.78;5052735;28;20255;-63
2022/12/30 05:03:34;;;;;;;0.60;0.60;;;;;;;2.05;100.00;100396.97;5052294;28;20224;-63
2022/12/30 05:06:01;;;;;;;0.67;0.67;;;;;;;2.04;100.00;100400.31;5052660;28;20677;-63
2022/12/30 05:08:28;;;;;;;0.87;0.87;;;;;;;2.02;100.00;100407.88;5052513;28;20200;-63
2022/12/30 05:10:55;;;;;;;0.70;0.70;;;;;;;1.96;100.00;100412.81;5052789;28;20638;-63
2022/12/30 05:13:21;;;;;;;0.60;0.60;;;;;;;1.95;100.00;100411.09;5050741;28;20562;-63
2022/12/30 05:15:48;;;;;;;0.60;0.60;;;;;;;1.92;100.00;100416.09;5049748;28;20204;-63
2022/12/30 05:18:16;;;;;;;0.60;0.60;;;;;;;1.91;100.00;100414.38;5052049;28;20209;-63
2022/12/30 05:20:43;;;;;;;0.60;0.60;;;;;;;1.90;100.00;100414.38;5051960;28;20669;-63
2022/12/30 05:26:13;;;;;;;0.60;0.60;;;;;;;1.91;100.00;100419.44;5049501;28;20200;-63
2022/12/30 05:26:15;;;;;;;0.53;0.53;;;;;;;1.90;100.00;100410.19;5052739;28;20204;-63
2022/12/30 05:28:42;;;;;;;0.80;0.80;;;;;;;1.91;100.00;100414.38;5049566;28;20207;-63
2022/12/30 05:31:09;;;;;;;0.70;0.70;;;;;;;1.90;100.00;100417.75;5052493;28;20220;-63
2022/12/30 05:33:37;;;;;;;0.50;0.50;;;;;;;1.90;100.00;100412.69;5048246;28;20212;-63
2022/12/30 05:36:05;;;;;;;0.60;0.60;;;;;;;1.88;100.00;100424.44;5052330;28;20661;-63
2022/12/30 05:38:31;;;;;;;0.70;0.70;;;;;;;1.88;100.00;100416.84;5051905;28;20226;-63
2022/12/30 05:40:58;;;;;;;0.70;0.70;;;;;;;1.86;100.00;100413.44;5051660;28;20262;-63
2022/12/30 05:43:25;;;;;;;0.60;0.60;;;;;;;1.84;100.00;100421.84;5051774;28;20193;-63
2022/12/30 05:45:52;;;;;;;0.70;0.70;;;;;;;1.82;100.00;100419.25;5051745;28;20196;-63
2022/12/30 05:48:19;;;;;;;0.60;0.60;;;;;;;1.80;100.00;100423.44;5051680;28;20200;-63
2022/12/30 05:50:50;;;;;;;0.60;0.60;;;;;;;1.79;100.00;100416.66;5051828;28;20242;-63
2022/12/30 05:53:18;;;;;;;0.80;0.80;;;;;;;1.79;100.00;100424.25;5048084;28;20224;-63
2022/12/30 05:55:45;;;;;;;0.60;0.60;;;;;;;1.76;100.00;100419.13;5051590;28;20283;-63
2022/12/30 05:58:12;;;;;;;0.60;0.60;;;;;;;1.80;100.00;100420.06;5051669;28;20262;-63
2022/12/30 06:00:39;;;;;;;0.60;0.60;;;;;;;1.72;100.00;100404.72;5051342;28;20243;-63
2022/12/30 06:03:06;;;;;;;0.70;0.70;;;;;;;1.79;100.00;100418.34;5051429;28;20283;-63
2022/12/30 06:05:33;;;;;;;0.60;0.60;;;;;;;1.79;100.00;100429.31;5051160;28;20193;-63
2022/12/30 06:08:01;;;;;;;0.97;0.97;;;;;;;1.82;100.00;100428.50;5046387;28;20696;-63
2022/12/30 06:10:28;;;;;;;0.70;0.70;;;;;;;1.86;100.00;100430.28;5049574;28;20639;-63
2022/12/30 06:12:55;;;;;;;1.00;1.00;;;;;;;1.82;100.00;100426.84;5051448;28;20204;-63
2022/12/30 06:15:21;;;;;;;0.70;0.70;;;;;;;1.81;100.00;100432.72;5051462;28;20677;-63
2022/12/30 06:17:48;;;;;;;0.60;0.60;;;;;;;1.84;100.00;100432.78;5051238;28;20266;-63
2022/12/30 06:20:15;;;;;;;0.60;0.60;;;;;;;1.81;100.00;100422.59;5051092;28;20677;-63
2022/12/30 06:22:42;;;;;;;0.60;0.60;;;;;;;1.89;100.00;100436.28;5051061;28;20254;-63
2022/12/30 06:25:10;;;;;;;0.70;0.70;;;;;;;1.93;100.00;100438.06;5051045;28;20223;-63
2022/12/30 06:27:37;;;;;;;0.67;0.67;;;;;;;1.95;100.00;100440.59;5049467;28;20217;-63
2022/12/30 06:30:05;;;;;;;0.70;0.70;;;;;;;1.94;100.00;100444.78;5050542;28;20606;-63
2022/12/30 06:32:32;;;;;;;0.60;0.60;;;;;;;1.93;100.00;100448.16;5050093;28;20611;-62
2022/12/30 06:34:58;;;;;;;1.47;1.47;;;;;;;1.95;100.00;100451.56;5050844;28;20721;-62
2022/12/30 06:37:25;;;;;;;1.20;1.10;;;;;;;1.98;100.00;100451.63;5050350;28;20213;-63
2022/12/30 06:39:52;;;;;;;0.63;0.63;;;;;;;2.00;100.00;100455.03;5050662;28;20212;-64
2022/12/30 06:42:20;;;;;;;0.70;0.70;;;;;;;2.17;100.00;100462.97;5050682;28;20217;-64
2022/12/30 06:44:47;;;;;;;0.67;0.67;;;;;;;2.26;100.00;100463.19;5050831;28;20200;-63
2022/12/30 06:47:13;;;;;;;0.90;0.90;;;;;;;2.31;100.00;100460.72;5047145;28;20205;-64
2022/12/30 06:49:40;;;;;;;0.67;0.67;;;;;;;2.34;100.00;100463.31;5048966;28;20200;-61
2022/12/30 06:52:07;;;;;;;1.57;1.57;;;;;;;2.29;100.00;100462.38;5051726;28;20254;-61
2022/12/30 06:54:34;;;;;;;1.10;1.10;;;;;;;2.31;100.00;100463.25;5052030;28;20204;-61
2022/12/30 06:57:00;;;;;;;0.60;0.60;;;;;;;2.34;100.00;100463.31;5052724;28;20247;-61
2022/12/30 06:59:28;;;;;;;0.60;0.60;;;;;;;2.38;100.00;100465.09;5052670;28;20205;-61
2022/12/30 07:01:55;;;;;;;0.87;0.87;;;;;;;2.37;100.00;100460.84;5052964;28;20193;-61
2022/12/30 07:04:22;;;;;;;0.90;0.90;;;;;;;2.33;100.00;100459.06;5053132;28;20231;-61
2022/12/30 07:06:49;;;;;;;0.97;0.97;;;;;;;2.38;100.00;100457.50;5052167;28;20212;-61
2022/12/30 07:09:15;;;;;;;0.90;0.90;;;;;;;2.46;100.00;100472.00;5053335;28;20200;-61
2022/12/30 07:11:42;;;;;;;0.60;0.60;;;;;;;2.46;100.00;100472.00;5050781;28;20224;-61
2022/12/30 07:14:09;;;;;;;0.77;0.77;;;;;;;2.48;100.00;100475.44;5052645;28;20210;-61
2022/12/30 07:16:37;;;;;;;0.87;0.87;;;;;;;2.45;100.00;100461.84;5052338;28;20246;-61
2022/12/30 07:19:04;;;;;;;1.30;1.30;;;;;;;2.48;100.00;100469.50;5052760;28;20204;-61
2022/12/30 07:21:31;;;;;;;0.80;0.80;;;;;;;2.50;100.00;100475.44;5050264;28;20201;-61
2022/12/30 07:23:58;;;;;;;0.60;0.60;;;;;;;2.53;100.00;100478.03;5051186;28;20687;-61
2022/12/30 07:26:24;;;;;;;0.60;0.60;;;;;;;2.55;100.00;100478.94;5052105;28;20576;-63
2022/12/30 07:28:54;;;;;;;0.50;0.50;;;;;;;2.50;100.00;100462.78;5054334;28;20205;-64
2022/12/30 07:31:21;;;;;;;0.60;0.60;;;;;;;2.52;100.00;100468.75;5052108;28;20278;-64
2022/12/30 07:33:49;;;;;;;1.43;1.43;;;;;;;2.53;100.00;100483.94;5054152;28;20196;-63
2022/12/30 07:36:16;;;;;;;0.70;0.70;;;;;;;2.54;100.00;100484.81;5053758;28;20288;-63
2022/12/30 07:38:43;;;;;;;0.50;0.50;;;;;;;2.53;100.00;100488.16;5052902;28;20201;-64
2022/12/30 07:41:11;;;;;;;0.83;0.83;;;;;;;2.55;100.00;100482.28;5052829;28;20223;-68
2022/12/30 07:43:38;;;;;;;0.70;0.70;;;;;;;2.60;100.00;100479.84;5051268;28;20201;-64
2022/12/30 07:46:06;;;;;;;0.67;0.67;;;;;;;2.61;100.00;100461.31;5053362;28;20620;-67
2022/12/30 07:48:33;;;;;;;0.53;0.53;;;;;;;2.83;100.00;100480.28;5052226;28;20573;-64
2022/12/30 07:51:06;;;;;;;0.50;0.50;;;;;;;2.76;100.00;100466.66;5050692;28;20290;-66
2022/12/30 07:53:33;;;;;;;0.50;0.50;;;;;;;2.87;100.00;100482.06;5050886;28;20208;-61
2022/12/30 07:56:04;;;;;;;0.67;0.67;;;;;;;2.92;100.00;100486.38;5051071;28;20254;-60
2022/12/30 07:58:30;;;;;;;0.90;0.90;;;;;;;2.92;100.00;100488.91;5049303;28;20201;-60
2022/12/30 08:00:57;;;;;;;0.57;0.57;;;;;;;2.98;100.00;100489.00;5049893;28;20212;-60
2022/12/30 08:03:24;;;;;;;0.60;0.60;;;;;;;3.07;100.00;100486.63;5046559;28;20305;-60
2022/12/30 08:05:51;;;;;;;0.60;0.60;;;;;;;3.10;100.00;100479.06;5051356;28;20654;-60
2022/12/30 08:08:19;;;;;;;0.60;0.60;;;;;;;3.20;100.00;100484.31;5051845;28;20202;-61
2022/12/30 08:10:54;;;;;;;0.80;0.80;;;;;;;3.28;100.00;100482.75;5052821;28;20212;-60
2022/12/30 08:13:21;;;;;;;0.60;0.60;;;;;;;3.37;100.00;100488.81;5051566;28;20200;-60
2022/12/30 08:15:48;;;;;;;0.63;0.63;;;;;;;3.49;100.00;100493.25;5048388;28;20215;-61
2022/12/30 08:18:15;;;;;;;0.75;0.75;;;;;;;3.60;100.00;100496.78;5051056;28;21008;-57
2022/12/30 08:20:42;;;;;;;0.60;0.60;;;;;;;3.77;100.00;100495.38;5052851;28;20192;-57
2022/12/30 08:23:08;;;;;;;0.80;0.80;;;;;;;3.87;100.00;100482.00;5053062;28;20212;-57
2022/12/30 08:25:37;;;;;;;0.70;0.70;;;;;;;3.99;100.00;100483.84;5053100;28;20193;-57
2022/12/30 08:28:03;;;;;;;0.70;0.70;;;;;;;4.12;100.00;100484.03;5049551;28;20451;-58
2022/12/30 08:30:30;;;;;;;0.50;0.50;;;;;;;4.30;100.00;100488.47;5052258;28;20224;-57
2022/12/30 08:32:57;;;;;;;1.00;1.00;;;;;;;4.43;100.00;100482.69;5052728;28;20196;-58
2022/12/30 08:35:25;;;;;;;0.83;0.83;;;;;;;4.51;100.00;100488.72;5052873;28;20208;-57
2022/12/30 08:37:52;;;;;;;0.60;0.60;;;;;;;4.64;100.00;100477.03;5053023;28;20211;-57
2022/12/30 08:40:19;;;;;;;0.80;0.80;;;;;;;4.78;100.00;100483.13;5050911;28;20224;-57
2022/12/30 08:42:47;;;;;;;0.60;0.60;;;;;;;4.85;100.00;100487.41;5052098;28;20243;-57
2022/12/30 08:45:14;;;;;;;0.50;0.50;;;;;;;5.03;100.00;100476.56;5051792;28;20200;-58
2022/12/30 08:47:41;;;;;;;0.50;0.50;;;;;;;5.16;100.00;100479.25;5051511;28;20283;-58
2022/12/30 08:50:08;;;;;;;1.03;1.03;;;;;;;5.26;100.00;100473.41;5047991;28;20208;-61
2022/12/30 08:52:37;;;;;;;0.90;0.90;;;;;;;5.43;100.00;100470.16;5048992;28;20738;-62
2022/12/30 08:55:04;;;;;;;4.73;1.03;;;;;;;5.53;100.00;100462.56;5051906;28;20696;-65
2022/12/30 08:57:31;;;;;;;0.80;0.80;;;;;;;5.63;100.00;100458.41;5050829;28;20656;-64
2022/12/30 08:59:59;;;;;;;0.60;0.60;;;;;;;5.77;100.00;100456.81;5051845;28;20326;-63
2022/12/30 09:02:26;;;;;;;0.60;0.60;;;;;;;5.86;100.00;100459.44;5051646;28;20259;-63
2022/12/30 09:04:53;;;;;;;0.43;0.43;;;;;;;5.92;100.00;100450.97;5050822;28;20204;-64
2022/12/30 09:07:19;;;;;;;0.70;0.70;;;;;;;6.08;100.00;100463.78;5048210;28;20216;-60
2022/12/30 09:09:46;;;;;;;0.50;0.50;;;;;;;6.18;100.00;100460.44;5052372;28;20258;-62
2022/12/30 09:12:13;;;;;;;0.60;0.60;;;;;;;6.27;100.00;100450.28;5052011;28;20616;-58
2022/12/30 09:14:40;;;;;;;1.13;1.13;;;;;;;6.40;100.00;100455.44;5051812;28;20220;-58
2022/12/30 09:17:08;;;;;;;0.77;0.77;;;;;;;6.44;100.00;100441.84;5052206;28;20196;-58
2022/12/30 09:19:35;;;;;;;0.50;0.50;;;;;;;6.52;100.00;100443.59;5052108;28;20204;-58
2022/12/30 09:22:02;;;;;;;0.67;0.67;;;;;;;6.60;100.00;100443.59;5052652;28;20192;-58
2022/12/30 09:24:28;;;;;;;0.50;0.50;;;;;;;6.63;100.00;100418.97;5052040;28;20691;-58
2022/12/30 09:26:55;;;;;;;2.17;1.13;;;;;;;6.82;100.00;100438.56;5052464;28;20197;-58
2022/12/30 09:29:22;;;;;;;0.80;0.80;;;;;;;6.90;100.00;100438.56;5052356;28;20204;-58
2022/12/30 09:31:49;;;;;;;0.50;0.50;;;;;;;6.96;100.00;100424.97;5052000;28;20239;-58
2022/12/30 09:34:17;;;;;;;1.07;1.07;;;;;;;7.06;100.00;100429.25;5051886;28;20581;-58
2022/12/30 09:36:44;;;;;;;0.53;0.53;;;;;;;7.15;100.00;100430.09;5052078;28;20684;-58
2022/12/30 09:39:12;;;;;;;0.50;0.50;;;;;;;7.10;100.00;100413.94;5051948;28;20287;-58
2022/12/30 09:45:03;;;;;;;0.70;0.70;;;;;;;7.38;100.00;100413.06;5051799;28;20211;-58
2022/12/30 09:47:33;;;;;;;0.40;0.40;;;;;;;7.47;100.00;100416.44;5051884;28;20209;-58
2022/12/30 09:50:06;;;;;;;1.03;1.03;;;;;;;7.57;100.00;100410.50;5051628;28;20204;-58
2022/12/30 09:52:39;;;;;;;0.90;0.90;;;;;;;7.55;100.00;100385.00;5051783;28;20235;-58
2022/12/30 09:55:12;;;;;;;0.73;0.73;;;;;;;7.74;100.00;100401.09;5049559;28;20203;-58
2022/12/30 09:57:40;;;;;;;0.60;0.60;;;;;;;7.79;100.00;100389.16;5051686;28;20196;-58
2022/12/30 10:00:13;;;;;;;0.57;0.57;;;;;;;7.92;100.00;100388.25;5051439;28;20204;-58
2022/12/30 10:02:53;;;;;;;0.50;0.50;;;;;;;7.95;100.00;100375.47;5051288;28;20239;-58
2022/12/30 10:05:31;;;;;;;0.40;0.40;;;;;;;8.11;100.00;100386.50;5050509;28;20746;-58
2022/12/30 10:08:08;;;;;;;0.80;0.80;;;;;;;8.17;100.00;100379.66;5051566;28;20200;-58
2022/12/30 10:10:40;;;;;;;0.40;0.40;;;;;;;8.12;100.00;100363.50;5049443;28;20208;-58
2022/12/30 10:13:14;;;;;;;0.50;0.50;;;;;;;8.37;100.00;100365.09;5051093;28;20193;-58
2022/12/30 10:15:51;;;;;;;0.53;0.53;;;;;;;8.46;100.00;100363.34;5051673;28;20216;-58
2022/12/30 10:18:47;;;;;;;0.60;0.60;;;;;;;8.52;100.00;100358.19;5051269;28;20205;-58
2022/12/30 10:21:27;;;;;;;0.40;0.40;;;;;;;8.52;100.00;100353.09;5048594;28;20685;-58
2022/12/30 10:24:06;;;;;;;0.50;0.50;;;;;;;8.57;100.00;100356.44;5050830;28;20212;-58
2022/12/30 10:26:43;;;;;;;0.60;0.60;;;;;;;8.74;100.00;100349.53;5051271;28;20261;-58
2022/12/30 10:29:16;;;;;;;0.57;0.57;;;;;;;8.81;100.00;100346.91;5050258;28;20218;-58
2022/12/30 10:31:45;;;;;;;1.20;1.20;;;;;;;8.88;100.00;100345.16;5051219;28;20212;-58
2022/12/30 10:34:14;;;;;;;0.77;0.77;;;;;;;9.02;100.00;100350.13;5050246;28;20303;-58
2022/12/30 10:36:49;;;;;;;0.50;0.50;;;;;;;9.06;100.00;100344.97;5051053;28;20200;-58
2022/12/30 10:39:18;;;;;;;0.50;0.50;;;;;;;9.17;100.00;100335.53;5044769;28;20200;-58
2022/12/30 10:42:05;;;;;;;2.53;1.10;;;;;;;9.17;100.00;100330.41;5051572;28;20715;-58
2022/12/30 10:44:41;;;;;;;0.90;0.90;;;;;;;9.26;100.00;100335.41;5047055;28;20571;-59
2022/12/30 10:47:30;;;;;;;0.40;0.40;;;;;;;9.40;100.00;100327.59;5050005;28;20261;-58
2022/12/30 10:50:11;;;;;;;0.90;0.90;;;;;;;9.46;100.00;100328.41;5050897;28;20201;-58
2022/12/30 10:52:39;;;;;;;1.00;1.00;;;;;;;9.57;100.00;100319.72;5050908;28;20212;-58
2022/12/30 10:55:19;;;;;;;0.40;0.40;;;;;;;9.56;99.63;100307.81;5050750;28;20200;-58
2022/12/30 10:57:48;;;;;;;0.53;0.53;;;;;;;9.71;99.61;100317.84;5050914;28;20196;-59
2022/12/30 11:00:16;;;;;;;0.50;0.50;;;;;;;9.69;99.54;100299.13;5050963;28;20198;-58
2022/12/30 11:02:55;;;;;;;0.63;0.63;;;;;;;9.84;99.75;100293.78;5051015;28;20217;-58
2022/12/30 11:05:31;;;;;;;0.73;0.73;;;;;;;9.93;99.23;100303.91;5049466;28;20196;-59
2022/12/30 11:08:01;;;;;;;0.60;0.60;;;;;;;9.94;97.97;100300.50;5051000;28;20196;-59
2022/12/30 11:10:29;;;;;;;0.60;0.60;;;;;;;9.99;97.27;100293.59;5050805;28;20197;-58
2022/12/30 11:15:58;;;;;;;0.60;0.60;;;;;;;10.11;96.69;100288.31;5048326;28;20249;-59
2022/12/30 11:18:28;;;;;;;1.23;1.23;;;;;;;10.22;97.62;100296.72;5050597;28;20219;-57
2022/12/30 11:20:57;;;;;;;0.40;0.40;;;;;;;10.25;96.89;100286.41;5050574;28;20722;-57
2022/12/30 11:23:30;;;;;;;0.40;0.40;;;;;;;10.22;96.09;100273.66;5050542;28;20197;-57
2022/12/30 11:25:58;;;;;;;0.50;0.50;;;;;;;10.39;97.23;100283.66;5050855;28;20205;-57
2022/12/30 11:28:27;;;;;;;0.50;0.50;;;;;;;10.46;96.75;100285.25;5050438;28;20287;-57
2022/12/30 11:30:58;;;;;;;0.40;0.40;;;;;;;10.50;96.22;100276.66;5050826;28;20196;-57
2022/12/30 11:33:29;;;;;;;0.60;0.60;;;;;;;10.59;97.25;100280.78;5050475;28;20692;-60
2022/12/30 11:36:12;;;;;;;0.50;0.50;;;;;;;10.68;96.03;100275.50;5050602;28;20614;-57
2022/12/30 11:38:42;;;;;;;0.50;0.50;;;;;;;10.66;96.18;100264.44;5050342;28;20242;-62
2022/12/30 11:41:27;;;;;;;0.70;0.70;;;;;;;10.68;95.77;100270.38;5053761;28;20200;-61
2022/12/30 11:44:11;;;;;;;0.50;0.50;;;;;;;10.83;95.08;100264.97;5053788;28;20200;-61
2022/12/30 11:46:40;;;;;;;0.40;0.40;;;;;;;10.94;93.67;100273.31;5053770;28;20201;-62
2022/12/30 11:49:21;;;;;;;0.53;0.53;;;;;;;10.96;93.96;100266.44;5053886;28;20201;-62
2022/12/30 11:51:50;;;;;;;0.70;0.70;;;;;;;11.05;94.30;100266.25;5053615;28;20213;-62
2022/12/30 11:54:22;;;;;;;1.00;1.00;;;;;;;11.05;93.58;100256.00;5053896;28;20669;-62
2022/12/30 11:56:54;;;;;;;0.60;0.60;;;;;;;11.06;93.88;100262.84;5053727;28;20271;-62
2022/12/30 11:59:24;;;;;;;1.00;1.00;;;;;;;11.14;92.75;100245.59;5053489;28;20677;-62
2022/12/30 12:01:54;;;;;;;0.53;0.53;;;;;;;11.09;92.49;100232.00;5053745;28;20193;-61
2022/12/30 12:04:34;;;;;;;1.80;1.23;;;;;;;11.23;93.51;100250.53;5053031;28;20596;-62
2022/12/30 12:07:02;;;;;;;30.97;2.10;;;;;;;11.28;93.14;100253.84;5053710;28;20203;-62
2022/12/30 12:09:35;;;;;;;0.40;0.40;;;;;;;11.30;92.85;100244.44;5053359;28;20673;-62
2022/12/30 12:12:07;;;;;;;1.17;1.17;;;;;;;11.42;91.75;100243.31;5053452;28;20635;-62
2022/12/30 12:14:41;;;;;;;0.90;0.90;;;;;;;11.40;91.41;100251.06;5053113;28;20197;-62
2022/12/30 12:17:25;;;;;;;0.60;0.60;;;;;;;11.48;91.33;100240.63;5053508;28;20193;-62
2022/12/30 12:20:00;;;;;;;1.30;1.30;;;;;;;11.56;91.00;100234.47;5053075;28;20204;-61
2022/12/30 12:22:34;;;;;;;0.83;0.83;;;;;;;11.54;90.52;100232.78;5053104;28;20205;-63
2022/12/30 12:25:07;;;;;;;0.50;0.50;;;;;;;11.62;89.82;100227.50;5053021;28;20204;-62
2022/12/30 12:27:34;;;;;;;0.70;0.70;;;;;;;11.65;90.43;100232.56;5053138;28;20208;-62
2022/12/30 12:30:01;;;;;;;0.80;0.80;;;;;;;11.71;89.72;100230.75;5053036;28;20197;-62